createdAt,value
2023-08-26T00:00:13.292Z,9.681124
2023-08-26T00:01:13.384Z,9.681106
2023-08-26T00:02:13.265Z,9.681054
2023-08-26T00:03:13.391Z,9.681075
2023-08-26T00:04:13.289Z,9.681049
2023-08-26T00:05:13.257Z,9.681038
2023-08-26T00:06:13.260Z,9.681078
2023-08-26T00:07:13.228Z,9.681157
2023-08-26T00:08:13.216Z,9.681105
2023-08-26T00:09:13.414Z,9.681087
2023-08-26T00:10:13.304Z,9.681040
2023-08-26T00:11:13.351Z,9.681075
2023-08-26T00:12:13.219Z,9.681039
2023-08-26T00:13:13.183Z,9.681036
2023-08-26T00:14:13.161Z,9.681088
2023-08-26T00:15:13.155Z,9.681064
2023-08-26T00:16:13.169Z,9.681078
2023-08-26T00:17:13.156Z,9.681132
2023-08-26T00:18:13.151Z,9.681060
2023-08-26T00:19:13.137Z,9.681120
2023-08-26T00:20:13.113Z,9.681161
2023-08-26T00:21:13.123Z,9.681112
2023-08-26T00:22:13.117Z,9.681143
2023-08-26T00:23:13.110Z,9.681199
2023-08-26T00:24:13.080Z,9.681168
2023-08-26T00:25:13.092Z,9.681074
2023-08-26T00:26:13.095Z,9.681127
2023-08-26T00:27:13.076Z,9.681115
2023-08-26T00:28:13.046Z,9.681103
2023-08-26T00:29:13.070Z,9.681118
2023-08-26T00:30:13.042Z,9.681137
2023-08-26T00:31:13.097Z,9.681158
2023-08-26T00:32:13.062Z,9.681155
2023-08-26T00:33:13.063Z,9.681088
2023-08-26T00:34:13.032Z,9.681095
2023-08-26T00:35:13.036Z,9.681052
2023-08-26T00:36:13.005Z,9.681100
2023-08-26T00:37:13.014Z,9.681115
2023-08-26T00:38:13.010Z,9.681089
2023-08-26T00:39:12.992Z,9.681118
2023-08-26T00:40:12.980Z,9.681223
2023-08-26T00:41:12.976Z,9.681185
2023-08-26T00:42:12.995Z,9.681273
2023-08-26T00:43:13.007Z,9.681185
2023-08-26T00:44:12.937Z,9.681190
2023-08-26T00:45:12.942Z,9.681100
2023-08-26T00:46:12.918Z,9.681126
2023-08-26T00:47:12.940Z,9.681213
2023-08-26T00:48:12.940Z,9.681158
2023-08-26T00:49:12.938Z,9.681026
2023-08-26T00:50:12.908Z,9.681128
2023-08-26T00:51:12.907Z,9.681211
2023-08-26T00:52:12.882Z,9.681334
2023-08-26T00:53:12.922Z,9.681202
2023-08-26T00:54:12.858Z,9.680901
2023-08-26T00:55:12.872Z,9.680848
2023-08-26T00:56:12.877Z,9.681073
2023-08-26T00:57:12.859Z,9.681197
2023-08-26T00:58:12.840Z,9.681227
2023-08-26T00:59:12.868Z,9.681231
2023-08-26T01:00:12.859Z,9.680968
2023-08-26T01:01:12.887Z,9.680942
2023-08-26T01:02:12.818Z,9.681025
2023-08-26T01:03:12.878Z,9.681105
2023-08-26T01:04:12.805Z,9.681059
2023-08-26T01:05:12.803Z,9.681007
2023-08-26T01:06:12.814Z,9.681028
2023-08-26T01:07:12.785Z,9.680986
2023-08-26T01:08:12.763Z,9.681001
2023-08-26T01:09:12.774Z,9.681089
2023-08-26T01:10:12.777Z,9.681039
2023-08-26T01:11:12.759Z,9.680938
2023-08-26T01:12:12.752Z,9.681039
2023-08-26T01:13:12.759Z,9.680982
2023-08-26T01:14:12.727Z,9.681103
2023-08-26T01:15:12.762Z,9.681113
2023-08-26T01:16:12.719Z,9.680959
2023-08-26T01:17:12.716Z,9.681066
2023-08-26T01:18:12.700Z,9.681018
2023-08-26T01:19:12.718Z,9.681062
2023-08-26T01:20:12.680Z,9.681102
2023-08-26T01:21:12.701Z,9.681025
2023-08-26T01:22:12.663Z,9.680938
2023-08-26T01:23:12.670Z,9.680999
2023-08-26T01:24:12.652Z,9.680914
2023-08-26T01:25:12.693Z,9.681005
2023-08-26T01:26:12.637Z,9.681009
2023-08-26T01:27:12.642Z,9.681076
2023-08-26T01:28:12.619Z,9.680967
2023-08-26T01:29:12.635Z,9.681005
2023-08-26T01:30:12.620Z,9.681027
2023-08-26T01:31:12.718Z,9.681038
2023-08-26T01:32:12.593Z,9.681051
2023-08-26T01:33:12.594Z,9.681095
2023-08-26T01:34:12.571Z,9.681100
2023-08-26T01:35:12.614Z,9.681097
2023-08-26T01:36:12.561Z,9.681007
2023-08-26T01:37:12.598Z,9.680982
2023-08-26T01:38:12.548Z,9.680988
2023-08-26T01:39:12.558Z,9.681003
2023-08-26T01:40:12.529Z,9.681053
2023-08-26T01:41:12.536Z,9.681016
2023-08-26T01:42:12.515Z,9.681002
2023-08-26T01:43:12.544Z,9.681073
2023-08-26T01:44:12.502Z,9.681002
2023-08-26T01:45:12.536Z,9.681035
2023-08-26T01:46:12.571Z,9.681039
2023-08-26T01:47:12.533Z,9.681030
2023-08-26T01:48:12.554Z,9.680996
2023-08-26T01:49:12.492Z,9.681040
2023-08-26T01:50:12.488Z,9.681035
2023-08-26T01:51:12.463Z,9.680997
2023-08-26T01:52:12.443Z,9.681025
2023-08-26T01:53:12.451Z,9.681037
2023-08-26T01:54:12.432Z,9.681040
2023-08-26T01:55:12.471Z,9.681054
2023-08-26T01:56:12.445Z,9.681015
2023-08-26T01:57:12.440Z,9.681046
2023-08-26T01:58:12.420Z,9.680930
2023-08-26T01:59:12.427Z,9.680990
2023-08-26T02:00:12.392Z,9.681042
2023-08-26T02:01:12.407Z,9.681060
2023-08-26T02:02:12.452Z,9.681051
2023-08-26T02:03:12.429Z,9.681038
2023-08-26T02:04:12.380Z,9.681011
2023-08-26T02:05:12.405Z,9.681014
2023-08-26T02:06:12.347Z,9.681012
2023-08-26T02:07:12.344Z,9.681019
2023-08-26T02:08:12.337Z,9.681027
2023-08-26T02:09:12.335Z,9.681029
2023-08-26T02:10:12.305Z,9.680934
2023-08-26T02:11:12.481Z,9.680953
2023-08-26T02:12:12.295Z,9.680993
2023-08-26T02:13:12.321Z,9.680982
2023-08-26T02:14:12.591Z,9.681009
2023-08-26T02:15:12.448Z,9.681048
2023-08-26T02:16:12.488Z,9.681046
2023-08-26T02:17:12.400Z,9.680997
2023-08-26T02:18:12.296Z,9.681032
2023-08-26T02:19:12.308Z,9.680922
2023-08-26T02:20:12.235Z,9.680931
2023-08-26T02:21:12.242Z,9.681052
2023-08-26T02:22:12.223Z,9.681024
2023-08-26T02:23:12.229Z,9.680962
2023-08-26T02:24:12.229Z,9.680992
2023-08-26T02:25:12.205Z,9.681070
2023-08-26T02:26:12.202Z,9.680939
2023-08-26T02:27:12.189Z,9.681026
2023-08-26T02:28:12.172Z,9.680958
2023-08-26T02:29:12.199Z,9.680987
2023-08-26T02:30:12.201Z,9.681025
2023-08-26T02:31:12.168Z,9.681006
2023-08-26T02:32:12.158Z,9.681054
2023-08-26T02:33:12.150Z,9.680959
2023-08-26T02:34:12.145Z,9.681054
2023-08-26T02:35:12.133Z,9.680967
2023-08-26T02:36:12.136Z,9.681023
2023-08-26T02:37:12.140Z,9.681009
2023-08-26T02:38:12.106Z,9.681045
2023-08-26T02:39:12.122Z,9.681239
2023-08-26T02:40:12.086Z,9.681149
2023-08-26T02:41:12.105Z,9.681177
2023-08-26T02:42:12.091Z,9.681090
2023-08-26T02:43:12.082Z,9.681096
2023-08-26T02:44:12.076Z,9.681048
2023-08-26T02:45:12.082Z,9.680958
2023-08-26T02:46:12.086Z,9.681039
2023-08-26T02:47:12.040Z,9.680972
2023-08-26T02:48:12.073Z,9.681086
2023-08-26T02:49:12.046Z,9.681079
2023-08-26T02:50:12.011Z,9.681010
2023-08-26T02:51:12.024Z,9.681045
2023-08-26T02:52:11.985Z,9.681092
2023-08-26T02:53:11.991Z,9.681131
2023-08-26T02:54:11.987Z,9.681056
2023-08-26T02:55:12.022Z,9.681040
2023-08-26T02:56:11.976Z,9.680962
2023-08-26T02:57:12.009Z,9.681079
2023-08-26T02:58:11.956Z,9.681022
2023-08-26T02:59:11.973Z,9.681013
2023-08-26T03:00:11.949Z,9.681067
2023-08-26T03:01:11.966Z,9.681004
2023-08-26T03:02:11.947Z,9.681041
2023-08-26T03:03:11.997Z,9.681025
2023-08-26T03:04:11.921Z,9.681037
2023-08-26T03:05:11.917Z,9.681038
2023-08-26T03:06:11.917Z,9.681007
2023-08-26T03:07:11.903Z,9.681025
2023-08-26T03:08:11.894Z,9.681016
2023-08-26T03:09:11.923Z,9.681080
2023-08-26T03:10:11.869Z,9.681079
2023-08-26T03:11:11.873Z,9.681056
2023-08-26T03:12:11.852Z,9.681068
2023-08-26T03:13:11.853Z,9.681066
2023-08-26T03:14:11.836Z,9.681109
2023-08-26T03:15:11.875Z,9.681055
2023-08-26T03:16:11.836Z,9.681079
2023-08-26T03:17:11.834Z,9.681091
2023-08-26T03:18:11.865Z,9.681029
2023-08-26T03:19:11.820Z,9.681019
2023-08-26T03:20:11.792Z,9.681017
2023-08-26T03:21:11.815Z,9.681026
2023-08-26T03:22:11.782Z,9.681008
2023-08-26T03:23:11.780Z,9.681088
2023-08-26T03:24:11.793Z,9.681162
2023-08-26T03:25:11.765Z,9.681105
2023-08-26T03:26:11.753Z,9.681026
2023-08-26T03:27:11.750Z,9.681058
2023-08-26T03:28:11.741Z,9.681004
2023-08-26T03:29:11.747Z,9.681010
2023-08-26T03:30:11.754Z,9.681035
2023-08-26T03:31:11.807Z,9.681054
2023-08-26T03:32:11.705Z,9.681026
2023-08-26T03:33:11.766Z,9.680947
2023-08-26T03:34:11.705Z,9.681026
2023-08-26T03:35:11.709Z,9.681034
2023-08-26T03:36:11.671Z,9.680987
2023-08-26T03:37:11.688Z,9.680994
2023-08-26T03:38:11.683Z,9.681031
2023-08-26T03:39:11.743Z,9.681087
2023-08-26T03:40:11.658Z,9.681059
2023-08-26T03:41:11.657Z,9.681003
2023-08-26T03:42:11.658Z,9.681001
2023-08-26T03:43:11.660Z,9.681061
2023-08-26T03:44:11.628Z,9.681013
2023-08-26T03:45:11.631Z,9.681035
2023-08-26T03:46:11.622Z,9.681062
2023-08-26T03:47:11.614Z,9.681067
2023-08-26T03:48:11.621Z,9.680996
2023-08-26T03:49:13.637Z,9.681042
2023-08-26T03:50:11.594Z,9.681041
2023-08-26T03:51:11.590Z,9.681054
2023-08-26T03:52:11.556Z,9.681071
2023-08-26T03:53:11.595Z,9.681095
2023-08-26T03:54:11.554Z,9.681058
2023-08-26T03:55:11.565Z,9.681109
2023-08-26T03:56:11.536Z,9.681087
2023-08-26T03:57:11.551Z,9.681090
2023-08-26T03:58:11.520Z,9.681049
2023-08-26T03:59:11.554Z,9.681067
2023-08-26T04:00:11.520Z,9.681032
2023-08-26T04:01:11.531Z,9.681027
2023-08-26T04:02:11.493Z,9.680895
2023-08-26T04:03:11.566Z,9.680987
2023-08-26T04:04:11.573Z,9.681037
2023-08-26T04:05:11.612Z,9.681053
2023-08-26T04:06:11.462Z,9.680959
2023-08-26T04:07:11.479Z,9.680995
2023-08-26T04:08:11.451Z,9.681065
2023-08-26T04:09:11.463Z,9.681017
2023-08-26T04:10:11.489Z,9.681001
2023-08-26T04:11:11.461Z,9.680935
2023-08-26T04:12:11.421Z,9.681068
2023-08-26T04:13:11.504Z,9.681019
2023-08-26T04:14:11.405Z,9.681049
2023-08-26T04:15:11.444Z,9.681051
2023-08-26T04:16:11.445Z,9.681043
2023-08-26T04:17:11.405Z,9.681134
2023-08-26T04:18:11.475Z,9.681041
2023-08-26T04:19:11.405Z,9.681070
2023-08-26T04:20:11.359Z,9.681066
2023-08-26T04:21:11.378Z,9.681061
2023-08-26T04:22:11.356Z,9.680992
2023-08-26T04:23:11.365Z,9.681003
2023-08-26T04:24:11.357Z,9.681091
2023-08-26T04:25:11.353Z,9.681110
2023-08-26T04:26:11.360Z,9.681111
2023-08-26T04:27:11.356Z,9.681075
2023-08-26T04:28:11.307Z,9.681061
2023-08-26T04:29:11.330Z,9.681069
2023-08-26T04:30:11.282Z,9.681109
2023-08-26T04:31:11.313Z,9.681082
2023-08-26T04:32:11.297Z,9.681105
2023-08-26T04:33:11.325Z,9.681062
2023-08-26T04:34:11.247Z,9.681102
2023-08-26T04:35:11.260Z,9.681031
2023-08-26T04:36:11.234Z,9.681115
2023-08-26T04:37:11.262Z,9.681027
2023-08-26T04:38:11.254Z,9.681026
2023-08-26T04:39:11.229Z,9.681078
2023-08-26T04:40:11.231Z,9.681099
2023-08-26T04:41:11.215Z,9.681072
2023-08-26T04:42:11.187Z,9.681129
2023-08-26T04:43:11.204Z,9.681048
2023-08-26T04:44:11.172Z,9.681142
2023-08-26T04:45:11.189Z,9.681069
2023-08-26T04:46:11.198Z,9.681111
2023-08-26T04:47:11.195Z,9.681075
2023-08-26T04:48:11.291Z,9.681111
2023-08-26T04:49:11.166Z,9.681043
2023-08-26T04:50:11.194Z,9.681055
2023-08-26T04:51:11.176Z,9.681064
2023-08-26T04:52:11.124Z,9.681111
2023-08-26T04:53:11.169Z,9.681118
2023-08-26T04:54:11.117Z,9.681058
2023-08-26T04:55:11.118Z,9.681079
2023-08-26T04:56:11.120Z,9.681053
2023-08-26T04:57:11.095Z,9.681056
2023-08-26T04:58:11.066Z,9.681059
2023-08-26T04:59:11.114Z,9.681080
2023-08-26T05:00:11.053Z,9.681066
2023-08-26T05:01:11.072Z,9.681214
2023-08-26T05:02:11.037Z,9.680926
2023-08-26T05:03:11.145Z,9.680916
2023-08-26T05:04:11.020Z,9.680821
2023-08-26T05:05:11.045Z,9.680833
2023-08-26T05:06:11.025Z,9.680770
2023-08-26T05:07:11.018Z,9.680856
2023-08-26T05:08:11.037Z,9.680890
2023-08-26T05:09:11.007Z,9.680931
2023-08-26T05:10:10.977Z,9.680946
2023-08-26T05:11:10.994Z,9.680953
2023-08-26T05:12:10.979Z,9.681000
2023-08-26T05:13:10.972Z,9.680890
2023-08-26T05:14:10.971Z,9.680938
2023-08-26T05:15:10.949Z,9.681018
2023-08-26T05:16:10.957Z,9.680934
2023-08-26T05:17:10.931Z,9.680953
2023-08-26T05:18:10.981Z,9.680969
2023-08-26T05:19:10.945Z,9.681007
2023-08-26T05:20:10.900Z,9.681002
2023-08-26T05:21:10.909Z,9.680955
2023-08-26T05:22:10.893Z,9.681013
2023-08-26T05:23:10.899Z,9.680968
2023-08-26T05:24:10.901Z,9.681001
2023-08-26T05:25:10.887Z,9.681045
2023-08-26T05:26:10.862Z,9.681005
2023-08-26T05:27:10.865Z,9.681013
2023-08-26T05:28:10.854Z,9.681017
2023-08-26T05:29:10.840Z,9.680989
2023-08-26T05:30:10.855Z,9.681007
2023-08-26T05:31:10.861Z,9.681014
2023-08-26T05:32:10.811Z,9.680992
2023-08-26T05:33:10.899Z,9.680973
2023-08-26T05:34:10.791Z,9.680950
2023-08-26T05:35:10.827Z,9.680996
2023-08-26T05:36:10.796Z,9.681013
2023-08-26T05:37:10.793Z,9.680934
2023-08-26T05:38:10.775Z,9.680976
2023-08-26T05:39:10.780Z,9.680993
2023-08-26T05:40:10.757Z,9.680980
2023-08-26T05:41:10.757Z,9.681026
2023-08-26T05:42:10.755Z,9.681048
2023-08-26T05:43:10.779Z,9.681016
2023-08-26T05:44:10.936Z,9.680959
2023-08-26T05:45:10.756Z,9.681051
2023-08-26T05:46:10.733Z,9.681002
2023-08-26T05:47:10.745Z,9.681068
2023-08-26T05:48:10.759Z,9.681048
2023-08-26T05:49:10.703Z,9.681097
2023-08-26T05:50:10.714Z,9.681191
2023-08-26T05:51:10.692Z,9.681139
2023-08-26T05:52:10.665Z,9.681113
2023-08-26T05:53:10.701Z,9.681133
2023-08-26T05:54:10.655Z,9.681080
2023-08-26T05:55:10.658Z,9.681018
2023-08-26T05:56:10.640Z,9.681047
2023-08-26T05:57:10.707Z,9.680984
2023-08-26T05:58:10.615Z,9.680997
2023-08-26T05:59:10.643Z,9.681081
2023-08-26T06:00:10.631Z,9.681096
2023-08-26T06:01:10.623Z,9.681057
2023-08-26T06:02:10.601Z,9.681070
2023-08-26T06:03:10.603Z,9.681052
2023-08-26T06:04:10.608Z,9.681000
2023-08-26T06:05:10.613Z,9.681072
2023-08-26T06:06:10.568Z,9.681042
2023-08-26T06:07:10.584Z,9.680995
2023-08-26T06:08:10.549Z,9.681017
2023-08-26T06:09:10.563Z,9.680981
2023-08-26T06:10:10.553Z,9.680952
2023-08-26T06:11:10.562Z,9.681024
2023-08-26T06:12:10.533Z,9.681057
2023-08-26T06:13:10.526Z,9.681045
2023-08-26T06:14:10.499Z,9.681081
2023-08-26T06:15:10.533Z,9.681064
2023-08-26T06:16:10.558Z,9.681005
2023-08-26T06:17:10.576Z,9.681035
2023-08-26T06:18:10.507Z,9.681074
2023-08-26T06:19:10.492Z,9.681062
2023-08-26T06:20:10.460Z,9.681080
2023-08-26T06:21:10.500Z,9.681113
2023-08-26T06:22:10.465Z,9.681099
2023-08-26T06:23:10.472Z,9.681098
2023-08-26T06:24:10.456Z,9.681099
2023-08-26T06:25:10.461Z,9.681147
2023-08-26T06:26:10.436Z,9.681166
2023-08-26T06:27:10.439Z,9.681125
2023-08-26T06:28:10.421Z,9.681030
2023-08-26T06:29:10.417Z,9.681032
2023-08-26T06:30:10.404Z,9.681067
2023-08-26T06:31:10.447Z,9.681005
2023-08-26T06:32:10.380Z,9.680984
2023-08-26T06:33:10.389Z,9.681049
2023-08-26T06:34:10.382Z,9.681021
2023-08-26T06:35:10.367Z,9.681049
2023-08-26T06:36:10.363Z,9.681035
2023-08-26T06:37:10.377Z,9.681046
2023-08-26T06:38:10.335Z,9.680997
2023-08-26T06:39:10.344Z,9.681012
2023-08-26T06:40:10.333Z,9.680971
2023-08-26T06:41:10.349Z,9.680965
2023-08-26T06:42:10.324Z,9.680959
2023-08-26T06:43:10.339Z,9.680990
2023-08-26T06:44:10.311Z,9.680999
2023-08-26T06:45:10.308Z,9.680984
2023-08-26T06:46:10.384Z,9.680985
2023-08-26T06:47:10.312Z,9.680960
2023-08-26T06:48:10.321Z,9.680972
2023-08-26T06:49:10.280Z,9.681043
2023-08-26T06:50:10.297Z,9.680923
2023-08-26T06:51:10.282Z,9.681008
2023-08-26T06:52:10.247Z,9.680994
2023-08-26T06:53:10.270Z,9.680998
2023-08-26T06:54:10.241Z,9.680964
2023-08-26T06:55:10.370Z,9.681034
2023-08-26T06:56:10.237Z,9.680985
2023-08-26T06:57:10.223Z,9.681011
2023-08-26T06:58:10.199Z,9.681019
2023-08-26T06:59:10.214Z,9.680945
2023-08-26T07:00:10.209Z,9.680942
2023-08-26T07:01:10.235Z,9.681000
2023-08-26T07:02:10.208Z,9.680982
2023-08-26T07:03:10.214Z,9.680960
2023-08-26T07:04:10.219Z,9.681005
2023-08-26T07:05:10.177Z,9.681009
2023-08-26T07:06:10.142Z,9.680930
2023-08-26T07:07:10.165Z,9.681063
2023-08-26T07:08:10.127Z,9.681060
2023-08-26T07:09:10.131Z,9.680962
2023-08-26T07:10:10.112Z,9.681027
2023-08-26T07:11:10.129Z,9.681010
2023-08-26T07:12:10.101Z,9.681006
2023-08-26T07:13:10.144Z,9.681016
2023-08-26T07:14:10.105Z,9.681018
2023-08-26T07:15:10.126Z,9.681082
2023-08-26T07:16:10.127Z,9.681030
2023-08-26T07:17:10.092Z,9.680985
2023-08-26T07:18:10.120Z,9.681018
2023-08-26T07:19:10.116Z,9.680899
2023-08-26T07:20:10.187Z,9.680958
2023-08-26T07:21:10.050Z,9.681047
2023-08-26T07:22:10.023Z,9.680960
2023-08-26T07:23:10.038Z,9.681007
2023-08-26T07:24:10.032Z,9.680939
2023-08-26T07:25:10.023Z,9.680991
2023-08-26T07:26:10.031Z,9.680967
2023-08-26T07:27:10.005Z,9.680968
2023-08-26T07:28:10.007Z,9.680971
2023-08-26T07:29:10.007Z,9.680926
2023-08-26T07:30:10.376Z,9.680981
2023-08-26T07:31:10.048Z,9.681004
2023-08-26T07:32:09.956Z,9.681050
2023-08-26T07:33:10.002Z,9.681004
2023-08-26T07:34:09.956Z,9.680930
2023-08-26T07:35:09.954Z,9.681086
2023-08-26T07:36:09.924Z,9.681046
2023-08-26T07:37:09.973Z,9.680945
2023-08-26T07:38:09.919Z,9.681046
2023-08-26T07:39:09.927Z,9.680932
2023-08-26T07:40:09.916Z,9.680984
2023-08-26T07:41:09.920Z,9.681033
2023-08-26T07:42:09.880Z,9.680976
2023-08-26T07:43:09.901Z,9.680940
2023-08-26T07:44:09.867Z,9.680946
2023-08-26T07:45:09.874Z,9.680883
2023-08-26T07:47:09.920Z,9.681042
2023-08-26T07:49:09.864Z,9.681009
2023-08-26T07:50:09.840Z,9.681130
2023-08-26T07:51:09.856Z,9.681152
2023-08-26T07:52:09.823Z,9.681158
2023-08-26T07:53:09.845Z,9.681105
2023-08-26T07:54:09.840Z,9.681148
2023-08-26T07:55:09.816Z,9.681087
2023-08-26T07:56:09.788Z,9.681113
2023-08-26T07:57:09.801Z,9.681004
2023-08-26T07:58:09.773Z,9.681019
2023-08-26T07:59:09.792Z,9.681019
2023-08-26T08:00:10.558Z,9.681062
2023-08-26T08:01:09.808Z,9.681000
2023-08-26T08:02:09.800Z,9.681028
2023-08-26T08:03:09.825Z,9.681053
2023-08-26T08:04:09.750Z,9.681083
2023-08-26T08:05:09.738Z,9.681087
2023-08-26T08:06:09.714Z,9.681085
2023-08-26T08:07:09.745Z,9.681070
2023-08-26T08:08:09.729Z,9.681113
2023-08-26T08:09:09.745Z,9.681010
2023-08-26T08:10:09.695Z,9.680985
2023-08-26T08:11:09.707Z,9.681049
2023-08-26T08:12:09.694Z,9.681087
2023-08-26T08:13:09.714Z,9.681105
2023-08-26T08:14:09.672Z,9.681046
2023-08-26T08:15:09.678Z,9.680953
2023-08-26T08:16:09.741Z,9.680968
2023-08-26T08:17:09.648Z,9.681022
2023-08-26T08:18:09.783Z,9.681056
2023-08-26T08:19:09.673Z,9.681079
2023-08-26T08:20:09.610Z,9.681117
2023-08-26T08:21:09.624Z,9.681079
2023-08-26T08:22:09.593Z,9.681021
2023-08-26T08:23:09.655Z,9.681038
2023-08-26T08:24:09.585Z,9.681166
2023-08-26T08:25:09.634Z,9.681108
2023-08-26T08:26:09.574Z,9.681085
2023-08-26T08:27:09.610Z,9.681102
2023-08-26T08:28:09.571Z,9.681003
2023-08-26T08:29:09.572Z,9.680959
2023-08-26T08:30:09.569Z,9.680971
2023-08-26T08:31:09.604Z,9.681002
2023-08-26T08:32:09.540Z,9.681071
2023-08-26T08:33:09.558Z,9.681116
2023-08-26T08:34:09.521Z,9.681094
2023-08-26T08:35:09.556Z,9.681141
2023-08-26T08:36:09.502Z,9.681114
2023-08-26T08:37:09.514Z,9.681170
2023-08-26T08:38:11.410Z,9.681152
2023-08-26T08:39:09.504Z,9.681181
2023-08-26T08:40:09.490Z,9.681181
2023-08-26T08:41:09.519Z,9.681218
2023-08-26T08:42:09.475Z,9.681153
2023-08-26T08:43:09.496Z,9.681133
2023-08-26T08:44:09.473Z,9.681116
2023-08-26T08:45:10.721Z,9.681065
2023-08-26T08:46:09.444Z,9.681079
2023-08-26T08:47:09.439Z,9.681061
2023-08-26T08:48:09.432Z,9.681133
2023-08-26T08:49:09.453Z,9.681177
2023-08-26T08:50:09.411Z,9.681121
2023-08-26T08:51:09.436Z,9.681096
2023-08-26T08:52:09.408Z,9.681093
2023-08-26T08:53:09.414Z,9.681048
2023-08-26T08:54:09.383Z,9.681104
2023-08-26T08:55:09.412Z,9.681110
2023-08-26T08:56:09.380Z,9.681057
2023-08-26T08:57:09.376Z,9.681058
2023-08-26T08:58:09.353Z,9.681119
2023-08-26T08:59:09.386Z,9.681093
2023-08-26T09:00:09.355Z,9.681033
2023-08-26T09:01:09.368Z,9.681115
2023-08-26T09:02:09.330Z,9.681033
2023-08-26T09:03:09.433Z,9.681047
2023-08-26T09:04:09.315Z,9.681048
2023-08-26T09:05:09.352Z,9.681101
2023-08-26T09:06:09.322Z,9.681118
2023-08-26T09:07:09.332Z,9.681060
2023-08-26T09:08:09.278Z,9.681146
2023-08-26T09:09:14.140Z,9.681234
2023-08-26T09:10:10.320Z,9.681203
2023-08-26T09:11:09.280Z,9.681237
2023-08-26T09:12:09.274Z,9.681273
2023-08-26T09:13:09.260Z,9.681163
2023-08-26T09:14:09.251Z,9.681114
2023-08-26T09:15:09.274Z,9.681012
2023-08-26T09:16:09.271Z,9.681012
2023-08-26T09:17:09.249Z,9.681136
2023-08-26T09:18:09.239Z,9.681040
2023-08-26T09:19:09.268Z,9.681054
2023-08-26T09:20:09.203Z,9.680951
2023-08-26T09:21:09.248Z,9.681052
2023-08-26T09:22:09.198Z,9.681028
2023-08-26T09:23:09.206Z,9.680991
2023-08-26T09:24:09.186Z,9.681013
2023-08-26T09:25:09.225Z,9.681034
2023-08-26T09:26:09.172Z,9.681013
2023-08-26T09:27:09.171Z,9.681044
2023-08-26T09:28:09.154Z,9.680973
2023-08-26T09:29:09.268Z,9.680994
2023-08-26T09:30:09.215Z,9.680983
2023-08-26T09:31:09.219Z,9.680983
2023-08-26T09:32:09.123Z,9.681008
2023-08-26T09:33:09.220Z,9.680975
2023-08-26T09:34:09.155Z,9.681029
2023-08-26T09:35:09.134Z,9.681060
2023-08-26T09:37:09.121Z,9.681072
2023-08-26T09:38:09.138Z,9.681058
2023-08-26T09:39:09.093Z,9.681123
2023-08-26T09:40:09.102Z,9.681168
2023-08-26T09:41:09.084Z,9.681089
2023-08-26T09:42:09.129Z,9.681064
2023-08-26T09:43:09.064Z,9.681042
2023-08-26T09:44:09.070Z,9.681081
2023-08-26T09:45:09.070Z,9.681021
2023-08-26T09:46:09.148Z,9.681108
2023-08-26T09:47:09.063Z,9.681106
2023-08-26T09:48:09.083Z,9.681151
2023-08-26T09:49:09.032Z,9.681108
2023-08-26T09:50:09.017Z,9.681018
2023-08-26T09:51:09.014Z,9.681061
2023-08-26T09:52:08.986Z,9.681032
2023-08-26T09:53:08.996Z,9.681108
2023-08-26T09:54:08.996Z,9.681147
2023-08-26T09:55:08.989Z,9.681036
2023-08-26T09:56:08.969Z,9.680936
2023-08-26T09:57:09.005Z,9.681022
2023-08-26T09:58:08.949Z,9.680995
2023-08-26T09:59:08.957Z,9.681090
2023-08-26T10:00:08.937Z,9.681035
2023-08-26T10:01:08.942Z,9.681062
2023-08-26T10:02:08.938Z,9.680985
2023-08-26T10:03:09.022Z,9.681022
2023-08-26T10:04:08.909Z,9.681075
2023-08-26T10:05:08.918Z,9.681072
2023-08-26T10:06:08.910Z,9.680999
2023-08-26T10:07:08.899Z,9.680890
2023-08-26T10:08:08.889Z,9.680976
2023-08-26T10:09:08.918Z,9.680956
2023-08-26T10:10:08.867Z,9.680945
2023-08-26T10:11:08.900Z,9.681016
2023-08-26T10:12:08.881Z,9.681003
2023-08-26T10:13:08.856Z,9.680987
2023-08-26T10:14:08.842Z,9.681033
2023-08-26T10:15:08.856Z,9.681010
2023-08-26T10:16:09.779Z,9.680979
2023-08-26T10:17:08.893Z,9.680910
2023-08-26T10:18:08.848Z,9.681067
2023-08-26T10:19:09.169Z,9.681005
2023-08-26T10:20:08.824Z,9.681061
2023-08-26T10:21:08.822Z,9.681000
2023-08-26T10:22:08.817Z,9.680948
2023-08-26T10:23:08.786Z,9.680977
2023-08-26T10:24:08.773Z,9.680928
2023-08-26T10:25:08.795Z,9.680949
2023-08-26T10:26:08.762Z,9.680898
2023-08-26T10:27:08.767Z,9.680984
2023-08-26T10:28:08.773Z,9.681014
2023-08-26T10:29:09.323Z,9.680927
2023-08-26T10:30:08.725Z,9.680953
2023-08-26T10:31:08.752Z,9.681009
2023-08-26T10:32:08.731Z,9.680902
2023-08-26T10:33:08.755Z,9.680936
2023-08-26T10:34:08.691Z,9.680969
2023-08-26T10:35:08.712Z,9.681052
2023-08-26T10:36:08.678Z,9.680970
2023-08-26T10:37:08.694Z,9.680950
2023-08-26T10:38:08.692Z,9.680900
2023-08-26T10:39:08.700Z,9.680967
2023-08-26T10:40:08.665Z,9.680946
2023-08-26T10:41:08.674Z,9.680940
2023-08-26T10:42:08.666Z,9.681163
2023-08-26T10:43:08.672Z,9.681270
2023-08-26T10:44:08.624Z,9.681209
2023-08-26T10:45:08.656Z,9.681161
2023-08-26T10:46:08.672Z,9.681214
2023-08-26T10:47:08.645Z,9.681163
2023-08-26T10:48:08.716Z,9.681230
2023-08-26T10:49:08.615Z,9.681192
2023-08-26T10:50:08.612Z,9.681030
2023-08-26T10:51:08.594Z,9.681030
2023-08-26T10:52:08.593Z,9.680953
2023-08-26T10:53:08.604Z,9.680980
2023-08-26T10:54:08.584Z,9.680942
2023-08-26T10:55:08.578Z,9.680935
2023-08-26T10:56:08.549Z,9.680855
2023-08-26T10:57:08.610Z,9.680915
2023-08-26T10:58:08.538Z,9.680874
2023-08-26T10:59:08.545Z,9.680909
2023-08-26T11:00:08.552Z,9.680970
2023-08-26T11:01:08.548Z,9.681073
2023-08-26T11:02:08.525Z,9.681065
2023-08-26T11:03:08.634Z,9.681068
2023-08-26T11:04:08.497Z,9.681006
2023-08-26T11:05:08.491Z,9.681027
2023-08-26T11:06:08.471Z,9.681068
2023-08-26T11:07:08.512Z,9.681054
2023-08-26T11:08:08.516Z,9.681075
2023-08-26T11:09:08.520Z,9.680985
2023-08-26T11:10:08.439Z,9.680987
2023-08-26T11:11:08.453Z,9.681060
2023-08-26T11:12:08.430Z,9.681055
2023-08-26T11:13:08.441Z,9.680977
2023-08-26T11:14:08.420Z,9.681042
2023-08-26T11:15:08.460Z,9.681005
2023-08-26T11:16:08.436Z,9.681048
2023-08-26T11:17:08.412Z,9.680989
2023-08-26T11:18:08.703Z,9.681079
2023-08-26T11:19:08.400Z,9.681070
2023-08-26T11:20:08.373Z,9.681032
2023-08-26T11:21:08.412Z,9.681013
2023-08-26T11:22:08.359Z,9.681058
2023-08-26T11:23:08.369Z,9.681064
2023-08-26T11:24:08.350Z,9.681056
2023-08-26T11:25:08.365Z,9.681054
2023-08-26T11:26:08.371Z,9.681057
2023-08-26T11:27:08.368Z,9.681093
2023-08-26T11:28:08.332Z,9.681077
2023-08-26T11:29:08.327Z,9.681053
2023-08-26T11:30:08.326Z,9.681065
2023-08-26T11:31:08.353Z,9.681067
2023-08-26T11:32:08.292Z,9.681027
2023-08-26T11:33:08.322Z,9.681078
2023-08-26T11:34:08.281Z,9.681031
2023-08-26T11:35:08.287Z,9.681032
2023-08-26T11:36:09.692Z,9.681061
2023-08-26T11:37:08.309Z,9.681020
2023-08-26T11:38:08.254Z,9.681152
2023-08-26T11:39:08.266Z,9.681018
2023-08-26T11:40:08.283Z,9.681046
2023-08-26T11:41:08.272Z,9.681095
2023-08-26T11:42:08.236Z,9.681078
2023-08-26T11:43:08.247Z,9.681013
2023-08-26T11:44:09.149Z,9.681026
2023-08-26T11:45:08.235Z,9.681024
2023-08-26T11:46:08.289Z,9.681067
2023-08-26T11:47:08.243Z,9.681070